createdAt,value
2023-05-21T00:00:02.039Z,12.50
2023-05-21T00:02:30.215Z,12.50
2023-05-21T00:05:05.058Z,12.50
2023-05-21T00:07:38.941Z,12.50
2023-05-21T00:10:18.822Z,12.50
2023-05-21T00:12:52.851Z,12.50
2023-05-21T00:15:26.795Z,12.50
2023-05-21T00:17:54.031Z,12.50
2023-05-21T00:20:28.899Z,12.40
2023-05-21T00:23:03.857Z,12.30
2023-05-21T00:25:37.930Z,12.30
2023-05-21T00:28:05.548Z,12.30
2023-05-21T00:30:38.825Z,12.30
2023-05-21T00:33:06.002Z,12.30
2023-05-21T00:35:39.793Z,12.20
2023-05-21T00:38:07.611Z,12.20
2023-05-21T00:40:47.850Z,12.20
2023-05-21T00:43:21.771Z,12.10
2023-05-21T00:45:48.854Z,12.10
2023-05-21T00:48:22.803Z,12.10
2023-05-21T00:50:50.595Z,12.20
2023-05-21T00:53:25.834Z,12.20
2023-05-21T00:55:53.367Z,12.20
2023-05-21T00:58:26.858Z,12.30
2023-05-21T01:00:57.049Z,12.30
2023-05-21T01:03:24.442Z,12.30
2023-05-21T01:05:59.861Z,12.20
2023-05-21T01:08:41.836Z,12.20
2023-05-21T01:11:17.998Z,12.20
2023-05-21T01:13:53.856Z,12.20
2023-05-21T01:16:27.892Z,12.10
2023-05-21T01:19:01.891Z,12.10
2023-05-21T01:21:37.981Z,12.00
2023-05-21T01:24:08.544Z,12.10
2023-05-21T01:26:45.863Z,12.10
2023-05-21T01:29:14.741Z,12.10
2023-05-21T01:32:30.015Z,12.00
2023-05-21T01:35:21.773Z,12.00
2023-05-21T01:38:04.851Z,12.00
2023-05-21T01:41:10.848Z,11.90
2023-05-21T01:43:48.849Z,11.90
2023-05-21T01:46:28.916Z,11.90
2023-05-21T01:49:03.794Z,11.90
2023-05-21T01:51:31.311Z,11.80
2023-05-21T01:53:58.655Z,11.80
2023-05-21T01:56:32.822Z,11.80
2023-05-21T01:59:06.838Z,11.80
2023-05-21T02:01:34.464Z,11.70
2023-05-21T02:04:08.950Z,11.70
2023-05-21T02:06:43.808Z,11.70
2023-05-21T02:09:23.890Z,11.70
2023-05-21T02:11:57.846Z,11.60
2023-05-21T02:14:31.841Z,11.60
2023-05-21T02:16:59.661Z,11.50
2023-05-21T02:19:33.987Z,11.50
2023-05-21T02:22:07.833Z,11.50
2023-05-21T02:24:42.062Z,11.50
2023-05-21T02:27:10.771Z,11.50
2023-05-21T02:29:44.856Z,11.50
2023-05-21T02:32:18.844Z,11.50
2023-05-21T02:34:47.482Z,11.40
2023-05-21T02:37:20.856Z,11.50
2023-05-21T02:39:47.921Z,11.50
2023-05-21T02:42:21.902Z,11.40
2023-05-21T02:44:49.798Z,11.40
2023-05-21T02:47:23.915Z,11.40
2023-05-21T02:49:53.131Z,11.40
2023-05-21T02:52:30.908Z,11.50
2023-05-21T02:54:58.026Z,11.50
2023-05-21T02:57:31.825Z,11.50
2023-05-21T02:59:58.959Z,11.50
2023-05-21T03:02:32.950Z,11.60
2023-05-21T03:05:00.886Z,11.60
2023-05-21T03:07:41.813Z,11.60
2023-05-21T03:10:09.425Z,11.70
2023-05-21T03:12:42.878Z,11.70
2023-05-21T03:15:17.845Z,11.70
2023-05-21T03:17:52.023Z,11.60
2023-05-21T03:20:25.816Z,11.50
2023-05-21T03:22:53.070Z,11.60
2023-05-21T03:25:26.877Z,11.60
2023-05-21T03:28:00.957Z,11.60
2023-05-21T03:30:28.270Z,11.60
2023-05-21T03:32:56.553Z,11.60
2023-05-21T03:35:29.912Z,11.60
2023-05-21T03:37:57.017Z,11.50
2023-05-21T03:40:30.862Z,11.50
2023-05-21T03:42:57.975Z,11.50
2023-05-21T03:45:25.048Z,11.50
2023-05-21T03:47:58.939Z,11.50
2023-05-21T03:50:32.852Z,11.40
2023-05-21T03:53:06.839Z,11.40
2023-05-21T03:55:40.848Z,11.40
2023-05-21T03:58:20.864Z,11.30
2023-05-21T04:00:48.479Z,11.40
2023-05-21T04:03:16.236Z,11.40
2023-05-21T04:05:49.879Z,11.30
2023-05-21T04:08:23.570Z,11.30
2023-05-21T04:10:56.915Z,11.30
2023-05-21T04:13:24.013Z,11.30
2023-05-21T04:15:57.860Z,11.40
2023-05-21T04:18:26.164Z,11.40
2023-05-21T04:21:01.134Z,11.50
2023-05-21T04:23:34.860Z,11.50
2023-05-21T04:26:08.907Z,11.60
2023-05-21T04:28:43.838Z,11.60
2023-05-21T04:31:13.901Z,11.70
2023-05-21T04:33:49.148Z,11.80
2023-05-21T04:36:17.493Z,11.80
2023-05-21T04:38:51.849Z,11.90
2023-05-21T04:41:19.197Z,12.00
2023-05-21T04:43:52.917Z,12.10
2023-05-21T04:46:27.000Z,12.20
2023-05-21T04:49:04.949Z,12.30
2023-05-21T04:51:38.909Z,12.30
2023-05-21T04:54:06.511Z,12.50
2023-05-21T04:56:39.882Z,12.60
2023-05-21T04:59:07.160Z,12.80
2023-05-21T05:01:41.882Z,12.90
2023-05-21T05:04:09.767Z,13.00
2023-05-21T05:06:43.873Z,13.10
2023-05-21T05:09:24.926Z,13.30
2023-05-21T05:11:52.256Z,13.40
2023-05-21T05:14:25.877Z,13.60
2023-05-21T05:16:54.630Z,13.70
2023-05-21T05:19:29.068Z,13.80
2023-05-21T05:22:02.939Z,14.00
2023-05-21T05:24:36.903Z,14.10
2023-05-21T05:27:10.892Z,14.20
2023-05-21T05:29:44.853Z,14.30
2023-05-21T05:32:19.016Z,14.40
2023-05-21T05:34:47.129Z,14.50
2023-05-21T05:37:14.528Z,14.60
2023-05-21T05:39:48.972Z,14.70
2023-05-21T05:42:16.225Z,14.90
2023-05-21T05:44:49.921Z,15.00
2023-05-21T05:47:17.601Z,15.20
2023-05-21T05:49:52.147Z,15.40
2023-05-21T05:52:19.363Z,15.40
2023-05-21T05:54:53.899Z,15.50
2023-05-21T05:57:28.042Z,15.60
2023-05-21T06:00:02.057Z,15.80
2023-05-21T06:02:29.286Z,16.00
2023-05-21T06:05:02.929Z,16.20
2023-05-21T06:07:37.893Z,16.40
2023-05-21T06:10:15.935Z,16.60
2023-05-21T06:12:49.885Z,16.80
2023-05-21T06:15:23.890Z,17.10
2023-05-21T06:17:51.057Z,17.20
2023-05-21T06:20:24.876Z,17.30
2023-05-21T06:22:52.003Z,17.40
2023-05-21T06:25:25.967Z,17.40
2023-05-21T06:27:53.184Z,17.60
2023-05-21T06:30:26.924Z,17.70
2023-05-21T06:32:54.099Z,17.90
2023-05-21T06:35:28.994Z,18.00
2023-05-21T06:37:57.465Z,18.20
2023-05-21T06:40:30.899Z,18.40
2023-05-21T06:43:00.024Z,18.60
2023-05-21T06:45:33.974Z,18.90
2023-05-21T06:48:07.995Z,19.00
2023-05-21T06:50:41.970Z,19.10
2023-05-21T06:53:15.885Z,19.40
2023-05-21T06:55:52.929Z,19.70
2023-05-21T06:58:20.038Z,19.80
2023-05-21T07:00:53.973Z,19.90
2023-05-21T07:03:21.202Z,20.00
2023-05-21T07:05:54.938Z,20.10
2023-05-21T07:08:28.590Z,20.30
2023-05-21T07:11:02.926Z,20.50
2023-05-21T07:13:30.935Z,20.90
2023-05-21T07:15:58.016Z,21.10
2023-05-21T07:18:32.139Z,21.20
2023-05-21T07:21:06.867Z,21.40
2023-05-21T07:23:40.900Z,21.50
2023-05-21T07:26:10.768Z,21.60
2023-05-21T07:28:45.978Z,21.80
2023-05-21T07:31:13.262Z,21.70
2023-05-21T07:33:40.397Z,21.90
2023-05-21T07:36:13.954Z,21.70
2023-05-21T07:38:47.889Z,21.50
2023-05-21T07:41:23.208Z,21.40
2023-05-21T07:43:57.901Z,21.20
2023-05-21T07:46:31.994Z,21.10
2023-05-21T07:49:07.159Z,20.90
2023-05-21T07:51:41.000Z,21.00
2023-05-21T07:54:20.986Z,20.90
2023-05-21T07:56:57.113Z,20.90
2023-05-21T07:59:33.037Z,20.60
2023-05-21T08:02:01.031Z,20.50
2023-05-21T08:04:37.006Z,20.40
2023-05-21T08:07:13.065Z,20.20
2023-05-21T08:09:56.997Z,20.10
2023-05-21T08:12:24.469Z,20.00
2023-05-21T08:14:57.976Z,19.90
2023-05-21T08:17:26.995Z,19.90
2023-05-21T08:20:01.013Z,19.80
2023-05-21T08:22:35.941Z,19.80
2023-05-21T08:25:10.963Z,19.80
2023-05-21T08:27:44.988Z,19.80
2023-05-21T08:30:19.017Z,19.80
2023-05-21T08:32:55.461Z,19.90
2023-05-21T08:35:22.690Z,20.10
2023-05-21T08:37:57.089Z,20.30
2023-05-21T08:40:24.412Z,20.40
2023-05-21T08:42:58.936Z,20.40
2023-05-21T08:45:27.728Z,20.40
2023-05-21T08:48:04.031Z,20.40
2023-05-21T08:50:32.801Z,20.30
2023-05-21T08:53:15.997Z,20.30
2023-05-21T08:56:04.966Z,20.40
2023-05-21T08:58:39.956Z,20.30
2023-05-21T09:01:15.024Z,20.40
2023-05-21T09:03:49.959Z,20.30
2023-05-21T09:06:23.974Z,20.30
2023-05-21T09:09:15.927Z,20.20
2023-05-21T09:11:50.004Z,20.30
2023-05-21T09:14:18.801Z,20.30
2023-05-21T09:16:55.032Z,20.40
2023-05-21T09:19:22.647Z,20.50
2023-05-21T09:21:59.067Z,20.80
2023-05-21T09:24:35.853Z,20.80
2023-05-21T09:27:14.025Z,21.00
2023-05-21T09:29:42.686Z,21.00
2023-05-21T09:32:16.952Z,21.10
2023-05-21T09:34:45.049Z,21.10
2023-05-21T09:37:27.011Z,21.00
2023-05-21T09:39:54.862Z,21.20
2023-05-21T09:42:30.057Z,21.20
2023-05-21T09:44:58.047Z,21.30
2023-05-21T09:47:32.051Z,21.40
2023-05-21T09:50:06.013Z,21.50
2023-05-21T09:52:43.022Z,21.70
2023-05-21T09:55:15.040Z,21.80
2023-05-21T09:57:56.991Z,22.00
2023-05-21T10:00:35.142Z,22.10
2023-05-21T10:03:20.386Z,22.10
2023-05-21T10:05:47.585Z,22.10
2023-05-21T10:08:33.980Z,22.10
2023-05-21T10:11:16.990Z,22.10
2023-05-21T10:14:01.004Z,22.20
2023-05-21T10:16:37.132Z,22.20
2023-05-21T10:19:06.104Z,22.20
2023-05-21T10:21:33.742Z,22.30
2023-05-21T10:24:10.966Z,22.40
2023-05-21T10:26:41.470Z,22.40
2023-05-21T10:29:19.346Z,22.30
2023-05-21T10:31:50.033Z,22.20
2023-05-21T10:34:23.997Z,22.10
2023-05-21T10:36:59.999Z,21.90
2023-05-21T10:39:34.040Z,22.00
2023-05-21T10:42:12.697Z,22.00
2023-05-21T10:45:11.063Z,22.10
2023-05-21T10:48:15.084Z,22.10
2023-05-21T10:51:21.002Z,22.00
2023-05-21T10:54:55.353Z,22.10
2023-05-21T10:57:58.241Z,22.20
2023-05-21T11:00:27.604Z,22.50
2023-05-21T11:02:55.116Z,22.50
2023-05-21T11:05:58.025Z,22.60
2023-05-21T11:08:40.967Z,22.80
2023-05-21T11:11:53.471Z,22.80
2023-05-21T11:14:43.091Z,22.80
2023-05-21T11:17:23.039Z,23.00
2023-05-21T11:19:59.024Z,23.00
2023-05-21T11:22:27.773Z,23.20
2023-05-21T11:25:08.992Z,23.20
2023-05-21T11:27:42.932Z,23.40
2023-05-21T11:30:25.201Z,23.50
2023-05-21T11:33:15.815Z,23.50
2023-05-21T11:35:52.019Z,23.40
2023-05-21T11:38:27.041Z,23.60
2023-05-21T11:40:55.660Z,23.60
2023-05-21T11:43:30.172Z,23.80
2023-05-21T11:45:58.206Z,23.80
2023-05-21T11:48:34.011Z,23.80
2023-05-21T11:51:02.323Z,23.80
2023-05-21T11:53:37.065Z,23.70
2023-05-21T11:56:09.923Z,23.90
2023-05-21T11:58:43.011Z,23.90
2023-05-21T12:01:31.048Z,24.10
2023-05-21T12:03:58.220Z,24.40
2023-05-21T12:06:28.538Z,25.00
2023-05-21T12:09:06.059Z,26.00
2023-05-21T12:11:33.292Z,26.70
2023-05-21T12:14:07.020Z,27.50
2023-05-21T12:16:34.539Z,27.90
2023-05-21T12:19:10.052Z,28.30
2023-05-21T12:21:44.036Z,28.20
2023-05-21T12:24:19.222Z,28.20
2023-05-21T12:26:53.024Z,28.40
2023-05-21T12:29:28.045Z,28.40
2023-05-21T12:31:59.770Z,28.10
2023-05-21T12:34:58.176Z,27.90
2023-05-21T12:37:35.482Z,27.40
2023-05-21T12:40:18.080Z,26.80
2023-05-21T12:42:52.103Z,26.70
2023-05-21T12:45:28.017Z,26.50
2023-05-21T12:48:03.142Z,26.60
2023-05-21T12:50:33.223Z,26.50
2023-05-21T12:53:07.022Z,26.50
2023-05-21T12:55:42.056Z,26.40
2023-05-21T12:58:20.010Z,26.30
2023-05-21T13:00:54.265Z,26.30
2023-05-21T13:03:24.195Z,26.00
2023-05-21T13:06:09.086Z,25.60
2023-05-21T13:08:43.152Z,25.40
2023-05-21T13:11:23.318Z,25.20
2023-05-21T13:13:50.447Z,25.10
2023-05-21T13:16:24.153Z,25.00
2023-05-21T13:18:51.255Z,24.80
2023-05-21T13:21:25.047Z,24.70
2023-05-21T13:23:56.699Z,24.50
2023-05-21T13:26:23.791Z,24.30
2023-05-21T13:28:58.071Z,24.30
2023-05-21T13:31:26.118Z,24.10
2023-05-21T13:34:02.028Z,24.20
2023-05-21T13:36:29.167Z,24.10
2023-05-21T13:39:04.050Z,24.10
2023-05-21T13:41:38.054Z,24.10
2023-05-21T13:44:05.523Z,24.10
2023-05-21T13:46:39.153Z,24.00
2023-05-21T13:49:06.663Z,24.00
2023-05-21T13:51:40.040Z,24.10
2023-05-21T13:54:07.107Z,24.10
2023-05-21T13:56:41.065Z,24.10
2023-05-21T13:59:08.222Z,24.20
2023-05-21T14:01:42.058Z,24.30
2023-05-21T14:04:09.224Z,24.50
2023-05-21T14:06:36.587Z,24.50
2023-05-21T14:09:11.063Z,24.40
2023-05-21T14:11:38.573Z,24.30
2023-05-21T14:14:13.188Z,24.40
2023-05-21T14:16:40.326Z,24.40
2023-05-21T14:19:14.130Z,24.50
2023-05-21T14:21:41.750Z,24.60
2023-05-21T14:24:17.089Z,24.60
2023-05-21T14:26:44.142Z,24.70
2023-05-21T14:29:25.060Z,24.50
2023-05-21T14:32:15.168Z,24.60
2023-05-21T14:34:56.066Z,24.50
2023-05-21T14:37:23.371Z,24.40
2023-05-21T14:39:57.151Z,24.10
2023-05-21T14:42:24.303Z,23.90
2023-05-21T14:44:58.952Z,23.70
2023-05-21T14:47:33.077Z,23.70
2023-05-21T14:50:07.128Z,23.60
2023-05-21T14:52:35.412Z,23.60
2023-05-21T14:55:09.136Z,23.60
2023-05-21T14:57:36.366Z,23.60
2023-05-21T15:00:12.084Z,23.50
2023-05-21T15:02:39.716Z,23.40
2023-05-21T15:05:14.284Z,23.20
2023-05-21T15:07:41.335Z,23.20
2023-05-21T15:10:21.126Z,23.10
2023-05-21T15:12:48.321Z,22.90
2023-05-21T15:15:24.114Z,22.90
2023-05-21T15:17:51.351Z,22.80
2023-05-21T15:20:26.131Z,22.70
2023-05-21T15:23:08.502Z,22.50
2023-05-21T15:25:46.176Z,22.30
2023-05-21T15:28:14.670Z,22.30
2023-05-21T15:30:48.090Z,22.20
2023-05-21T15:33:16.166Z,22.10
2023-05-21T15:35:50.149Z,22.00
2023-05-21T15:38:17.553Z,22.00
2023-05-21T15:40:52.106Z,21.90
2023-05-21T15:43:19.223Z,21.90
2023-05-21T15:45:53.305Z,21.70
2023-05-21T15:48:29.132Z,21.70
2023-05-21T15:50:56.557Z,21.50
2023-05-21T15:53:31.100Z,21.40
2023-05-21T15:56:00.396Z,21.30
2023-05-21T15:58:34.156Z,21.20
2023-05-21T16:01:09.138Z,21.10
2023-05-21T16:03:43.280Z,21.10
2023-05-21T16:06:17.117Z,21.00
2023-05-21T16:08:52.158Z,21.00
2023-05-21T16:11:34.099Z,21.00
2023-05-21T16:14:08.085Z,21.00
2023-05-21T16:16:37.707Z,21.00
2023-05-21T16:19:13.489Z,20.90
2023-05-21T16:21:42.250Z,20.90
2023-05-21T16:24:16.179Z,20.90
2023-05-21T16:26:44.109Z,20.90
2023-05-21T16:29:18.123Z,20.90
2023-05-21T16:31:52.237Z,20.90
2023-05-21T16:34:26.075Z,20.90
2023-05-21T16:36:54.220Z,20.90
2023-05-21T16:39:28.100Z,20.80
2023-05-21T16:42:01.367Z,20.70
2023-05-21T16:44:36.231Z,20.80
2023-05-21T16:47:04.560Z,20.80
2023-05-21T16:49:38.137Z,20.70
2023-05-21T16:52:05.735Z,20.60
2023-05-21T16:54:40.109Z,20.60
2023-05-21T16:57:07.546Z,20.50
2023-05-21T16:59:41.189Z,20.50
2023-05-21T17:02:12.083Z,20.40
2023-05-21T17:04:46.146Z,20.40
2023-05-21T17:07:13.200Z,20.30
2023-05-21T17:09:54.181Z,20.20
2023-05-21T17:12:28.132Z,20.20
2023-05-21T17:15:02.134Z,20.20
2023-05-21T17:17:29.406Z,20.10
2023-05-21T17:20:03.169Z,20.10
2023-05-21T17:22:37.212Z,20.00
2023-05-21T17:25:11.116Z,20.00
2023-05-21T17:27:38.247Z,20.00
2023-05-21T17:30:13.115Z,20.00
2023-05-21T17:32:40.159Z,19.90
2023-05-21T17:35:15.180Z,19.90
2023-05-21T17:37:42.329Z,19.90
2023-05-21T17:40:09.976Z,19.80
2023-05-21T17:42:44.184Z,19.70
2023-05-21T17:45:18.172Z,19.70
2023-05-21T17:47:45.352Z,19.60
2023-05-21T17:50:19.145Z,19.50
2023-05-21T17:52:46.255Z,19.40
2023-05-21T17:55:21.115Z,19.30
2023-05-21T17:57:48.293Z,19.20
2023-05-21T18:00:22.458Z,19.00
2023-05-21T18:02:49.689Z,18.90
2023-05-21T18:05:23.133Z,18.70
2023-05-21T18:07:50.524Z,18.60
2023-05-21T18:10:30.267Z,18.50
2023-05-21T18:12:57.465Z,18.30
2023-05-21T18:15:31.430Z,18.10
2023-05-21T18:17:58.693Z,17.90
2023-05-21T18:20:32.165Z,17.70
2023-05-21T18:22:59.276Z,17.50
2023-05-21T18:25:33.152Z,17.20
2023-05-21T18:28:01.601Z,17.10
2023-05-21T18:30:35.466Z,17.00
2023-05-21T18:33:04.159Z,16.90
2023-05-21T18:35:45.537Z,16.70
2023-05-21T18:38:13.313Z,16.60
2023-05-21T18:40:47.127Z,16.40
2023-05-21T18:43:14.674Z,16.20
2023-05-21T18:45:49.369Z,16.20
2023-05-21T18:48:24.187Z,16.00
2023-05-21T18:50:58.140Z,15.90
2023-05-21T18:53:25.238Z,15.80
2023-05-21T18:55:59.130Z,15.80
2023-05-21T18:58:33.377Z,15.80
2023-05-21T19:01:08.210Z,15.80
2023-05-21T19:03:35.290Z,15.70
2023-05-21T19:06:09.173Z,15.70
2023-05-21T19:08:46.283Z,15.60
2023-05-21T19:11:29.189Z,15.70
2023-05-21T19:14:03.162Z,15.70
2023-05-21T19:16:37.290Z,15.70
2023-05-21T19:19:11.228Z,15.60
2023-05-21T19:21:39.596Z,15.60
2023-05-21T19:24:14.180Z,15.60
2023-05-21T19:26:49.543Z,15.60
2023-05-21T19:29:23.129Z,15.50
2023-05-21T19:31:57.182Z,15.40
2023-05-21T19:34:24.304Z,15.20
2023-05-21T19:36:58.199Z,15.20
2023-05-21T19:39:25.450Z,15.10
2023-05-21T19:41:59.261Z,15.10
2023-05-21T19:44:33.186Z,14.90
2023-05-21T19:47:08.179Z,14.90
2023-05-21T19:49:42.166Z,14.90
2023-05-21T19:52:10.676Z,14.80
2023-05-21T19:54:44.369Z,14.80
2023-05-21T19:57:13.404Z,14.70
2023-05-21T19:59:48.216Z,14.70
2023-05-21T20:02:17.153Z,14.60
2023-05-21T20:04:51.275Z,14.60
2023-05-21T20:07:18.386Z,14.60
2023-05-21T20:09:54.195Z,14.60
2023-05-21T20:12:22.322Z,14.60
2023-05-21T20:14:56.169Z,14.60
2023-05-21T20:17:31.293Z,14.60
2023-05-21T20:20:07.151Z,14.60
2023-05-21T20:22:40.221Z,14.50
2023-05-21T20:25:15.356Z,14.60
2023-05-21T20:27:49.205Z,14.60
2023-05-21T20:30:16.388Z,14.70
2023-05-21T20:32:50.201Z,14.70
2023-05-21T20:35:24.156Z,14.70
2023-05-21T20:37:59.206Z,14.70
2023-05-21T20:40:27.479Z,14.80
2023-05-21T20:43:01.189Z,14.80
2023-05-21T20:45:29.934Z,14.70
2023-05-21T20:48:05.314Z,14.70
2023-05-21T20:50:41.315Z,14.70
2023-05-21T20:53:15.234Z,14.70
2023-05-21T20:55:44.508Z,14.70
2023-05-21T20:58:18.224Z,14.70
2023-05-21T21:00:48.587Z,14.80
2023-05-21T21:03:24.560Z,14.80
2023-05-21T21:05:52.910Z,14.80
2023-05-21T21:08:27.452Z,14.70
2023-05-21T21:11:08.282Z,14.70
2023-05-21T21:13:43.246Z,14.70
2023-05-21T21:16:17.263Z,14.80
2023-05-21T21:18:53.221Z,14.70
2023-05-21T21:21:27.193Z,14.70
2023-05-21T21:24:01.204Z,14.70
2023-05-21T21:26:28.424Z,14.70
2023-05-21T21:29:03.200Z,14.70
2023-05-21T21:31:30.747Z,14.70
2023-05-21T21:34:04.354Z,14.70
2023-05-21T21:36:31.572Z,14.60
2023-05-21T21:39:07.216Z,14.60
2023-05-21T21:41:41.204Z,14.50
2023-05-21T21:44:08.314Z,14.60
2023-05-21T21:46:44.221Z,14.50
2023-05-21T21:49:11.322Z,14.60
2023-05-21T21:51:46.178Z,14.60
2023-05-21T21:54:20.256Z,14.60
2023-05-21T21:56:48.596Z,14.60
2023-05-21T21:59:22.225Z,14.60
2023-05-21T22:01:49.498Z,14.70
2023-05-21T22:04:24.281Z,14.70
2023-05-21T22:07:00.176Z,14.70
2023-05-21T22:09:41.239Z,14.70
2023-05-21T22:12:15.239Z,14.70
2023-05-21T22:14:43.858Z,14.70
2023-05-21T22:17:17.503Z,14.70
2023-05-21T22:19:51.219Z,14.70
2023-05-21T22:22:25.336Z,14.70
2023-05-21T22:24:55.307Z,14.60
2023-05-21T22:27:30.231Z,14.40
2023-05-21T22:29:57.435Z,14.30
2023-05-21T22:32:31.307Z,14.20
2023-05-21T22:34:59.608Z,14.10
2023-05-21T22:37:33.203Z,14.00
2023-05-21T22:40:07.251Z,13.80
2023-05-21T22:42:35.562Z,13.70
2023-05-21T22:45:12.663Z,13.60
2023-05-21T22:47:46.307Z,13.50
2023-05-21T22:50:20.197Z,13.30
2023-05-21T22:52:47.373Z,13.30
2023-05-21T22:55:23.263Z,13.30
2023-05-21T22:57:52.973Z,13.30
2023-05-21T23:00:28.437Z,13.20
2023-05-21T23:02:55.806Z,13.20
2023-05-21T23:05:29.242Z,13.20
2023-05-21T23:08:03.206Z,13.30
2023-05-21T23:10:43.243Z,13.30
2023-05-21T23:13:17.218Z,13.30
2023-05-21T23:15:51.530Z,13.30
2023-05-21T23:18:19.001Z,13.40
2023-05-21T23:20:55.316Z,13.40
2023-05-21T23:23:22.396Z,13.40
2023-05-21T23:25:57.255Z,13.30
2023-05-21T23:28:24.568Z,13.20
2023-05-21T23:30:54.404Z,13.10
2023-05-21T23:33:28.270Z,13.00
2023-05-21T23:35:55.535Z,13.00
2023-05-21T23:38:31.282Z,13.00
2023-05-21T23:40:58.381Z,13.00
2023-05-21T23:43:32.301Z,13.10
2023-05-21T23:46:06.349Z,13.10
2023-05-21T23:48:40.746Z,13.20
2023-05-21T23:51:15.262Z,13.30
2023-05-21T23:53:49.506Z,13.40
2023-05-21T23:56:23.213Z,13.50
2023-05-21T23:58:53.230Z,13.50
